sensor_id;sensor_type;location;lat;lon;timestamp;P1;durP1;ratioP1;P2;durP2;ratioP2
14903;SDS011;7543;53.148;8.234;2022-10-31T00:01:26;19.80;;;8.03;;
14903;SDS011;7543;53.148;8.234;2022-10-31T00:03:55;19.37;;;7.70;;
14903;SDS011;7543;53.148;8.234;2022-10-31T00:06:23;16.97;;;7.50;;
14903;SDS011;7543;53.148;8.234;2022-10-31T00:08:52;13.70;;;7.03;;
14903;SDS011;7543;53.148;8.234;2022-10-31T00:11:23;16.23;;;7.80;;
14903;SDS011;7543;53.148;8.234;2022-10-31T00:13:52;16.23;;;7.63;;
14903;SDS011;7543;53.148;8.234;2022-10-31T00:16:20;18.37;;;8.20;;
14903;SDS011;7543;53.148;8.234;2022-10-31T00:18:49;20.67;;;7.83;;
14903;SDS011;7543;53.148;8.234;2022-10-31T00:21:18;16.90;;;8.30;;
14903;SDS011;7543;53.148;8.234;2022-10-31T00:23:47;13.67;;;7.07;;
14903;SDS011;7543;53.148;8.234;2022-10-31T00:26:15;11.73;;;7.37;;
14903;SDS011;7543;53.148;8.234;2022-10-31T00:28:44;15.53;;;7.63;;
14903;SDS011;7543;53.148;8.234;2022-10-31T00:31:13;11.87;;;7.03;;
14903;SDS011;7543;53.148;8.234;2022-10-31T00:33:41;13.30;;;7.37;;
14903;SDS011;7543;53.148;8.234;2022-10-31T00:36:11;12.23;;;7.30;;
14903;SDS011;7543;53.148;8.234;2022-10-31T00:38:41;13.17;;;7.07;;
14903;SDS011;7543;53.148;8.234;2022-10-31T00:41:10;12.83;;;6.90;;
14903;SDS011;7543;53.148;8.234;2022-10-31T00:43:41;17.50;;;7.83;;
14903;SDS011;7543;53.148;8.234;2022-10-31T00:46:11;14.87;;;7.80;;
14903;SDS011;7543;53.148;8.234;2022-10-31T00:48:39;15.37;;;7.17;;
14903;SDS011;7543;53.148;8.234;2022-10-31T00:51:07;14.87;;;7.17;;
14903;SDS011;7543;53.148;8.234;2022-10-31T00:53:36;11.60;;;7.27;;
14903;SDS011;7543;53.148;8.234;2022-10-31T00:56:04;17.00;;;7.17;;
14903;SDS011;7543;53.148;8.234;2022-10-31T00:58:33;15.90;;;7.20;;
14903;SDS011;7543;53.148;8.234;2022-10-31T01:01:02;16.60;;;7.30;;
14903;SDS011;7543;53.148;8.234;2022-10-31T01:03:32;12.53;;;6.90;;
14903;SDS011;7543;53.148;8.234;2022-10-31T01:06:01;14.87;;;6.43;;
14903;SDS011;7543;53.148;8.234;2022-10-31T01:08:33;12.03;;;6.13;;
14903;SDS011;7543;53.148;8.234;2022-10-31T01:11:03;12.90;;;7.37;;
14903;SDS011;7543;53.148;8.234;2022-10-31T01:13:33;17.03;;;7.60;;
14903;SDS011;7543;53.148;8.234;2022-10-31T01:16:03;11.63;;;6.93;;
14903;SDS011;7543;53.148;8.234;2022-10-31T01:18:34;12.43;;;6.80;;
14903;SDS011;7543;53.148;8.234;2022-10-31T01:21:03;19.47;;;8.23;;
14903;SDS011;7543;53.148;8.234;2022-10-31T01:23:33;13.37;;;7.40;;
14903;SDS011;7543;53.148;8.234;2022-10-31T01:26:06;15.50;;;7.77;;
14903;SDS011;7543;53.148;8.234;2022-10-31T01:28:36;20.87;;;8.70;;
14903;SDS011;7543;53.148;8.234;2022-10-31T01:31:06;19.43;;;9.00;;
14903;SDS011;7543;53.148;8.234;2022-10-31T01:33:37;17.43;;;8.73;;
14903;SDS011;7543;53.148;8.234;2022-10-31T01:36:13;17.97;;;8.90;;
14903;SDS011;7543;53.148;8.234;2022-10-31T01:38:43;17.20;;;9.10;;
14903;SDS011;7543;53.148;8.234;2022-10-31T01:41:12;17.83;;;8.53;;
14903;SDS011;7543;53.148;8.234;2022-10-31T01:43:41;13.63;;;8.47;;
14903;SDS011;7543;53.148;8.234;2022-10-31T01:46:10;17.20;;;8.50;;
14903;SDS011;7543;53.148;8.234;2022-10-31T01:48:40;17.67;;;9.10;;
14903;SDS011;7543;53.148;8.234;2022-10-31T01:51:09;13.17;;;8.33;;
14903;SDS011;7543;53.148;8.234;2022-10-31T01:53:38;14.70;;;7.60;;
14903;SDS011;7543;53.148;8.234;2022-10-31T01:56:07;14.27;;;6.87;;
14903;SDS011;7543;53.148;8.234;2022-10-31T01:58:38;13.53;;;7.70;;
14903;SDS011;7543;53.148;8.234;2022-10-31T02:01:07;17.60;;;8.27;;
14903;SDS011;7543;53.148;8.234;2022-10-31T02:03:35;15.10;;;8.20;;
14903;SDS011;7543;53.148;8.234;2022-10-31T02:06:06;18.27;;;8.60;;
14903;SDS011;7543;53.148;8.234;2022-10-31T02:08:44;16.47;;;7.87;;
14903;SDS011;7543;53.148;8.234;2022-10-31T02:11:13;21.27;;;8.90;;
14903;SDS011;7543;53.148;8.234;2022-10-31T02:13:42;17.43;;;8.37;;
14903;SDS011;7543;53.148;8.234;2022-10-31T02:16:10;16.30;;;8.10;;
14903;SDS011;7543;53.148;8.234;2022-10-31T02:18:38;21.00;;;9.00;;
14903;SDS011;7543;53.148;8.234;2022-10-31T02:21:10;14.27;;;8.07;;
14903;SDS011;7543;53.148;8.234;2022-10-31T02:26:57;17.60;;;7.87;;
14903;SDS011;7543;53.148;8.234;2022-10-31T02:32:26;13.77;;;7.77;;
14903;SDS011;7543;53.148;8.234;2022-10-31T02:34:58;15.20;;;7.70;;
14903;SDS011;7543;53.148;8.234;2022-10-31T02:37:33;17.90;;;7.33;;
14903;SDS011;7543;53.148;8.234;2022-10-31T02:40:07;13.97;;;7.97;;
14903;SDS011;7543;53.148;8.234;2022-10-31T02:42:59;16.03;;;7.80;;
14903;SDS011;7543;53.148;8.234;2022-10-31T02:45:30;15.37;;;8.00;;
14903;SDS011;7543;53.148;8.234;2022-10-31T02:48:03;17.43;;;8.17;;
14903;SDS011;7543;53.148;8.234;2022-10-31T02:50:37;17.17;;;8.37;;
14903;SDS011;7543;53.148;8.234;2022-10-31T02:53:10;15.77;;;8.63;;
14903;SDS011;7543;53.148;8.234;2022-10-31T02:55:44;23.83;;;8.20;;
14903;SDS011;7543;53.148;8.234;2022-10-31T02:58:28;16.30;;;8.53;;
14903;SDS011;7543;53.148;8.234;2022-10-31T03:01:10;16.27;;;8.30;;
14903;SDS011;7543;53.148;8.234;2022-10-31T03:07:16;15.73;;;7.33;;
14903;SDS011;7543;53.148;8.234;2022-10-31T03:09:51;14.17;;;7.33;;
14903;SDS011;7543;53.148;8.234;2022-10-31T03:12:25;12.97;;;6.83;;
14903;SDS011;7543;53.148;8.234;2022-10-31T03:14:56;12.50;;;6.80;;
14903;SDS011;7543;53.148;8.234;2022-10-31T03:17:30;12.43;;;7.30;;
14903;SDS011;7543;53.148;8.234;2022-10-31T03:20:03;14.70;;;6.80;;
14903;SDS011;7543;53.148;8.234;2022-10-31T03:22:34;11.77;;;6.30;;
14903;SDS011;7543;53.148;8.234;2022-10-31T03:25:04;10.03;;;6.10;;
14903;SDS011;7543;53.148;8.234;2022-10-31T03:27:33;12.17;;;6.73;;
14903;SDS011;7543;53.148;8.234;2022-10-31T03:30:04;11.17;;;6.07;;
14903;SDS011;7543;53.148;8.234;2022-10-31T03:32:47;13.53;;;7.20;;
14903;SDS011;7543;53.148;8.234;2022-10-31T03:35:18;9.77;;;6.57;;
14903;SDS011;7543;53.148;8.234;2022-10-31T03:37:49;15.40;;;7.73;;
14903;SDS011;7543;53.148;8.234;2022-10-31T03:40:19;13.57;;;6.53;;
14903;SDS011;7543;53.148;8.234;2022-10-31T03:42:51;15.80;;;7.20;;
14903;SDS011;7543;53.148;8.234;2022-10-31T03:45:23;16.13;;;7.70;;
14903;SDS011;7543;53.148;8.234;2022-10-31T03:47:52;13.50;;;7.40;;
14903;SDS011;7543;53.148;8.234;2022-10-31T03:50:23;15.10;;;6.73;;
14903;SDS011;7543;53.148;8.234;2022-10-31T03:52:55;14.23;;;6.90;;
14903;SDS011;7543;53.148;8.234;2022-10-31T03:55:26;14.50;;;7.63;;
14903;SDS011;7543;53.148;8.234;2022-10-31T03:57:58;13.23;;;6.90;;
14903;SDS011;7543;53.148;8.234;2022-10-31T04:00:27;13.33;;;6.57;;
14903;SDS011;7543;53.148;8.234;2022-10-31T04:02:58;11.73;;;6.20;;
14903;SDS011;7543;53.148;8.234;2022-10-31T04:05:31;10.97;;;6.77;;
14903;SDS011;7543;53.148;8.234;2022-10-31T04:08:03;8.97;;;5.67;;
14903;SDS011;7543;53.148;8.234;2022-10-31T04:10:35;11.50;;;6.83;;
14903;SDS011;7543;53.148;8.234;2022-10-31T04:13:07;8.33;;;5.07;;
14903;SDS011;7543;53.148;8.234;2022-10-31T04:15:48;9.87;;;5.23;;
14903;SDS011;7543;53.148;8.234;2022-10-31T04:18:18;6.20;;;4.73;;
14903;SDS011;7543;53.148;8.234;2022-10-31T04:20:58;7.10;;;4.90;;
14903;SDS011;7543;53.148;8.234;2022-10-31T04:23:27;8.07;;;4.90;;
14903;SDS011;7543;53.148;8.234;2022-10-31T04:25:56;7.60;;;4.70;;
14903;SDS011;7543;53.148;8.234;2022-10-31T04:28:24;8.20;;;4.97;;
14903;SDS011;7543;53.148;8.234;2022-10-31T04:30:53;8.43;;;5.20;;
14903;SDS011;7543;53.148;8.234;2022-10-31T04:33:22;6.90;;;4.90;;
14903;SDS011;7543;53.148;8.234;2022-10-31T04:35:52;5.70;;;4.57;;
14903;SDS011;7543;53.148;8.234;2022-10-31T04:38:20;9.23;;;5.00;;
14903;SDS011;7543;53.148;8.234;2022-10-31T04:40:50;6.27;;;4.70;;
14903;SDS011;7543;53.148;8.234;2022-10-31T04:43:37;7.27;;;4.57;;
14903;SDS011;7543;53.148;8.234;2022-10-31T04:46:05;7.50;;;4.40;;
14903;SDS011;7543;53.148;8.234;2022-10-31T04:48:34;7.13;;;4.70;;
14903;SDS011;7543;53.148;8.234;2022-10-31T04:51:06;6.00;;;4.60;;
14903;SDS011;7543;53.148;8.234;2022-10-31T04:53:35;7.43;;;4.60;;
14903;SDS011;7543;53.148;8.234;2022-10-31T04:56:26;9.30;;;5.57;;
14903;SDS011;7543;53.148;8.234;2022-10-31T04:59:04;8.73;;;5.47;;
14903;SDS011;7543;53.148;8.234;2022-10-31T05:01:45;8.27;;;5.10;;
14903;SDS011;7543;53.148;8.234;2022-10-31T05:04:13;9.43;;;5.00;;
14903;SDS011;7543;53.148;8.234;2022-10-31T05:06:43;9.40;;;5.07;;
14903;SDS011;7543;53.148;8.234;2022-10-31T05:09:11;7.90;;;5.30;;
14903;SDS011;7543;53.148;8.234;2022-10-31T05:11:40;9.97;;;5.23;;
14903;SDS011;7543;53.148;8.234;2022-10-31T05:14:30;7.50;;;4.47;;
14903;SDS011;7543;53.148;8.234;2022-10-31T05:17:17;16.77;;;5.10;;
14903;SDS011;7543;53.148;8.234;2022-10-31T05:20:04;7.47;;;4.60;;
14903;SDS011;7543;53.148;8.234;2022-10-31T05:23:06;13.60;;;4.90;;
14903;SDS011;7543;53.148;8.234;2022-10-31T05:25:35;7.63;;;5.00;;
14903;SDS011;7543;53.148;8.234;2022-10-31T05:28:04;8.43;;;5.00;;
14903;SDS011;7543;53.148;8.234;2022-10-31T05:30:33;6.60;;;4.63;;
14903;SDS011;7543;53.148;8.234;2022-10-31T05:33:03;9.60;;;5.03;;
14903;SDS011;7543;53.148;8.234;2022-10-31T05:35:47;7.90;;;4.83;;
14903;SDS011;7543;53.148;8.234;2022-10-31T05:38:43;7.53;;;4.90;;
14903;SDS011;7543;53.148;8.234;2022-10-31T05:41:17;11.53;;;5.40;;
14903;SDS011;7543;53.148;8.234;2022-10-31T05:43:47;6.37;;;4.73;;
14903;SDS011;7543;53.148;8.234;2022-10-31T05:46:19;7.83;;;5.33;;
14903;SDS011;7543;53.148;8.234;2022-10-31T05:49:05;7.33;;;4.93;;
14903;SDS011;7543;53.148;8.234;2022-10-31T05:51:52;7.10;;;4.90;;
14903;SDS011;7543;53.148;8.234;2022-10-31T05:54:28;6.30;;;4.63;;
14903;SDS011;7543;53.148;8.234;2022-10-31T05:56:57;5.53;;;4.40;;
14903;SDS011;7543;53.148;8.234;2022-10-31T05:59:25;7.57;;;4.57;;
14903;SDS011;7543;53.148;8.234;2022-10-31T06:01:53;6.47;;;5.27;;
14903;SDS011;7543;53.148;8.234;2022-10-31T06:04:33;8.90;;;5.13;;
14903;SDS011;7543;53.148;8.234;2022-10-31T06:07:03;6.83;;;5.17;;
14903;SDS011;7543;53.148;8.234;2022-10-31T06:09:34;7.00;;;5.07;;
14903;SDS011;7543;53.148;8.234;2022-10-31T06:12:02;8.10;;;5.20;;
14903;SDS011;7543;53.148;8.234;2022-10-31T06:14:51;7.50;;;4.83;;
14903;SDS011;7543;53.148;8.234;2022-10-31T06:17:19;7.70;;;5.50;;
14903;SDS011;7543;53.148;8.234;2022-10-31T06:19:47;8.93;;;5.73;;
14903;SDS011;7543;53.148;8.234;2022-10-31T06:22:20;8.47;;;5.80;;
14903;SDS011;7543;53.148;8.234;2022-10-31T06:24:50;8.60;;;5.60;;
14903;SDS011;7543;53.148;8.234;2022-10-31T06:27:41;8.23;;;5.53;;
14903;SDS011;7543;53.148;8.234;2022-10-31T06:30:14;8.53;;;5.67;;
14903;SDS011;7543;53.148;8.234;2022-10-31T06:32:45;11.07;;;6.43;;
14903;SDS011;7543;53.148;8.234;2022-10-31T06:35:13;9.00;;;6.00;;
14903;SDS011;7543;53.148;8.234;2022-10-31T06:37:42;9.57;;;5.97;;
14903;SDS011;7543;53.148;8.234;2022-10-31T06:40:41;9.37;;;5.97;;
14903;SDS011;7543;53.148;8.234;2022-10-31T06:43:22;10.17;;;6.43;;
14903;SDS011;7543;53.148;8.234;2022-10-31T06:46:04;12.03;;;6.13;;
14903;SDS011;7543;53.148;8.234;2022-10-31T06:48:41;9.73;;;6.17;;
14903;SDS011;7543;53.148;8.234;2022-10-31T06:51:35;9.13;;;6.13;;
14903;SDS011;7543;53.148;8.234;2022-10-31T06:54:03;11.60;;;6.23;;
14903;SDS011;7543;53.148;8.234;2022-10-31T06:56:33;9.57;;;5.60;;
14903;SDS011;7543;53.148;8.234;2022-10-31T06:59:02;9.90;;;6.00;;
14903;SDS011;7543;53.148;8.234;2022-10-31T07:01:51;10.03;;;6.27;;
14903;SDS011;7543;53.148;8.234;2022-10-31T07:04:19;9.77;;;6.23;;
14903;SDS011;7543;53.148;8.234;2022-10-31T07:06:50;11.10;;;6.43;;
14903;SDS011;7543;53.148;8.234;2022-10-31T07:09:19;10.37;;;6.37;;
14903;SDS011;7543;53.148;8.234;2022-10-31T07:11:50;9.83;;;6.47;;
14903;SDS011;7543;53.148;8.234;2022-10-31T07:14:19;11.03;;;6.83;;
14903;SDS011;7543;53.148;8.234;2022-10-31T07:16:48;9.13;;;6.53;;
14903;SDS011;7543;53.148;8.234;2022-10-31T07:19:22;8.80;;;6.27;;
14903;SDS011;7543;53.148;8.234;2022-10-31T07:21:50;9.60;;;6.20;;
14903;SDS011;7543;53.148;8.234;2022-10-31T07:24:19;10.63;;;6.77;;
14903;SDS011;7543;53.148;8.234;2022-10-31T07:27:08;10.10;;;6.33;;
14903;SDS011;7543;53.148;8.234;2022-10-31T07:29:37;9.97;;;6.40;;
14903;SDS011;7543;53.148;8.234;2022-10-31T07:32:05;11.10;;;6.73;;
14903;SDS011;7543;53.148;8.234;2022-10-31T07:34:36;11.03;;;6.50;;
14903;SDS011;7543;53.148;8.234;2022-10-31T07:37:18;11.57;;;6.30;;
14903;SDS011;7543;53.148;8.234;2022-10-31T07:39:47;11.27;;;7.03;;
14903;SDS011;7543;53.148;8.234;2022-10-31T07:42:17;10.87;;;6.67;;
14903;SDS011;7543;53.148;8.234;2022-10-31T07:44:46;13.77;;;6.70;;
14903;SDS011;7543;53.148;8.234;2022-10-31T07:47:37;11.23;;;6.43;;
14903;SDS011;7543;53.148;8.234;2022-10-31T07:50:38;12.47;;;7.37;;
14903;SDS011;7543;53.148;8.234;2022-10-31T07:53:27;9.17;;;6.50;;
14903;SDS011;7543;53.148;8.234;2022-10-31T07:56:02;13.77;;;6.37;;
14903;SDS011;7543;53.148;8.234;2022-10-31T07:58:32;8.03;;;5.93;;
14903;SDS011;7543;53.148;8.234;2022-10-31T08:01:00;10.07;;;6.37;;
14903;SDS011;7543;53.148;8.234;2022-10-31T08:03:39;9.33;;;6.10;;
14903;SDS011;7543;53.148;8.234;2022-10-31T08:06:10;11.00;;;6.07;;
14903;SDS011;7543;53.148;8.234;2022-10-31T08:08:58;9.87;;;6.43;;
14903;SDS011;7543;53.148;8.234;2022-10-31T08:11:27;10.53;;;6.53;;
14903;SDS011;7543;53.148;8.234;2022-10-31T08:13:57;8.37;;;5.57;;
14903;SDS011;7543;53.148;8.234;2022-10-31T08:16:26;9.13;;;6.43;;
14903;SDS011;7543;53.148;8.234;2022-10-31T08:18:59;9.33;;;6.13;;
14903;SDS011;7543;53.148;8.234;2022-10-31T08:21:29;8.57;;;5.63;;
14903;SDS011;7543;53.148;8.234;2022-10-31T08:23:58;8.83;;;5.50;;
14903;SDS011;7543;53.148;8.234;2022-10-31T08:26:27;7.90;;;5.80;;
14903;SDS011;7543;53.148;8.234;2022-10-31T08:28:58;9.20;;;6.43;;
14903;SDS011;7543;53.148;8.234;2022-10-31T08:31:29;7.93;;;5.80;;
14903;SDS011;7543;53.148;8.234;2022-10-31T08:34:16;8.60;;;5.70;;
14903;SDS011;7543;53.148;8.234;2022-10-31T08:37:10;13.43;;;5.23;;
14903;SDS011;7543;53.148;8.234;2022-10-31T08:39:46;8.13;;;4.93;;
14903;SDS011;7543;53.148;8.234;2022-10-31T08:42:14;5.67;;;4.67;;
14903;SDS011;7543;53.148;8.234;2022-10-31T08:44:44;7.07;;;5.10;;
14903;SDS011;7543;53.148;8.234;2022-10-31T08:47:13;7.90;;;5.17;;
14903;SDS011;7543;53.148;8.234;2022-10-31T08:49:42;7.40;;;5.07;;
14903;SDS011;7543;53.148;8.234;2022-10-31T08:52:10;7.37;;;5.40;;
14903;SDS011;7543;53.148;8.234;2022-10-31T08:54:41;8.00;;;6.03;;
14903;SDS011;7543;53.148;8.234;2022-10-31T08:57:29;7.83;;;5.83;;
14903;SDS011;7543;53.148;8.234;2022-10-31T09:00:00;8.80;;;5.90;;
14903;SDS011;7543;53.148;8.234;2022-10-31T09:02:47;7.27;;;5.07;;
14903;SDS011;7543;53.148;8.234;2022-10-31T09:05:16;8.63;;;6.20;;
14903;SDS011;7543;53.148;8.234;2022-10-31T09:07:44;11.23;;;5.80;;
14903;SDS011;7543;53.148;8.234;2022-10-31T09:10:12;8.33;;;5.80;;
14903;SDS011;7543;53.148;8.234;2022-10-31T09:12:44;10.20;;;6.30;;
14903;SDS011;7543;53.148;8.234;2022-10-31T09:15:44;10.40;;;6.53;;
14903;SDS011;7543;53.148;8.234;2022-10-31T09:18:24;8.07;;;6.03;;
14903;SDS011;7543;53.148;8.234;2022-10-31T09:21:00;10.33;;;6.77;;
14903;SDS011;7543;53.148;8.234;2022-10-31T09:23:30;11.73;;;6.57;;
14903;SDS011;7543;53.148;8.234;2022-10-31T09:26:00;11.47;;;7.37;;
14903;SDS011;7543;53.148;8.234;2022-10-31T09:28:41;9.43;;;6.73;;
14903;SDS011;7543;53.148;8.234;2022-10-31T09:31:17;11.33;;;6.77;;
14903;SDS011;7543;53.148;8.234;2022-10-31T09:34:01;10.97;;;7.43;;
14903;SDS011;7543;53.148;8.234;2022-10-31T09:36:36;11.83;;;7.60;;
14903;SDS011;7543;53.148;8.234;2022-10-31T09:39:06;13.80;;;7.93;;
14903;SDS011;7543;53.148;8.234;2022-10-31T09:41:42;15.20;;;7.50;;
14903;SDS011;7543;53.148;8.234;2022-10-31T09:44:32;13.90;;;7.90;;
14903;SDS011;7543;53.148;8.234;2022-10-31T09:47:07;13.03;;;7.57;;
14903;SDS011;7543;53.148;8.234;2022-10-31T09:49:54;10.13;;;7.27;;
14903;SDS011;7543;53.148;8.234;2022-10-31T09:52:28;12.57;;;7.50;;
14903;SDS011;7543;53.148;8.234;2022-10-31T09:55:00;11.63;;;7.33;;
14903;SDS011;7543;53.148;8.234;2022-10-31T09:57:32;11.33;;;6.83;;
14903;SDS011;7543;53.148;8.234;2022-10-31T10:00:03;10.10;;;6.53;;
14903;SDS011;7543;53.148;8.234;2022-10-31T10:02:43;13.10;;;6.67;;
14903;SDS011;7543;53.148;8.234;2022-10-31T10:05:16;12.13;;;7.37;;
14903;SDS011;7543;53.148;8.234;2022-10-31T10:07:54;12.80;;;7.10;;
14903;SDS011;7543;53.148;8.234;2022-10-31T10:10:48;12.30;;;7.27;;
14903;SDS011;7543;53.148;8.234;2022-10-31T10:16:33;12.87;;;7.87;;
14903;SDS011;7543;53.148;8.234;2022-10-31T10:19:13;10.53;;;7.20;;
14903;SDS011;7543;53.148;8.234;2022-10-31T10:21:49;13.90;;;7.73;;
14903;SDS011;7543;53.148;8.234;2022-10-31T10:24:24;13.20;;;7.10;;
14903;SDS011;7543;53.148;8.234;2022-10-31T10:26:59;9.33;;;6.73;;
14903;SDS011;7543;53.148;8.234;2022-10-31T10:29:34;11.47;;;7.60;;
14903;SDS011;7543;53.148;8.234;2022-10-31T10:32:08;12.17;;;7.70;;
14903;SDS011;7543;53.148;8.234;2022-10-31T10:34:42;12.63;;;7.47;;
14903;SDS011;7543;53.148;8.234;2022-10-31T10:37:15;10.93;;;7.07;;
14903;SDS011;7543;53.148;8.234;2022-10-31T10:39:49;11.57;;;8.17;;
14903;SDS011;7543;53.148;8.234;2022-10-31T10:42:21;14.47;;;7.90;;
14903;SDS011;7543;53.148;8.234;2022-10-31T10:45:13;12.67;;;7.63;;
14903;SDS011;7543;53.148;8.234;2022-10-31T10:48:04;11.80;;;7.63;;
14903;SDS011;7543;53.148;8.234;2022-10-31T10:50:39;13.47;;;7.53;;
14903;SDS011;7543;53.148;8.234;2022-10-31T10:53:13;12.90;;;7.77;;
14903;SDS011;7543;53.148;8.234;2022-10-31T10:55:59;15.00;;;8.67;;
14903;SDS011;7543;53.148;8.234;2022-10-31T10:58:34;15.20;;;8.37;;
14903;SDS011;7543;53.148;8.234;2022-10-31T11:01:08;12.40;;;7.50;;
14903;SDS011;7543;53.148;8.234;2022-10-31T11:03:38;14.43;;;7.63;;
14903;SDS011;7543;53.148;8.234;2022-10-31T11:06:16;15.57;;;8.40;;
14903;SDS011;7543;53.148;8.234;2022-10-31T11:08:48;15.43;;;7.97;;
14903;SDS011;7543;53.148;8.234;2022-10-31T11:11:23;12.80;;;7.73;;
14903;SDS011;7543;53.148;8.234;2022-10-31T11:13:55;14.60;;;7.50;;
14903;SDS011;7543;53.148;8.234;2022-10-31T11:16:28;12.80;;;7.33;;
14903;SDS011;7543;53.148;8.234;2022-10-31T11:19:05;14.40;;;7.60;;
14903;SDS011;7543;53.148;8.234;2022-10-31T11:21:36;14.23;;;7.87;;
14903;SDS011;7543;53.148;8.234;2022-10-31T11:24:08;13.03;;;7.10;;
14903;SDS011;7543;53.148;8.234;2022-10-31T11:26:42;12.43;;;7.40;;
14903;SDS011;7543;53.148;8.234;2022-10-31T11:29:13;11.67;;;7.23;;
14903;SDS011;7543;53.148;8.234;2022-10-31T11:31:43;15.53;;;8.03;;
14903;SDS011;7543;53.148;8.234;2022-10-31T11:34:13;14.47;;;7.43;;
14903;SDS011;7543;53.148;8.234;2022-10-31T11:36:45;16.57;;;7.87;;
14903;SDS011;7543;53.148;8.234;2022-10-31T11:39:15;11.10;;;7.03;;
14903;SDS011;7543;53.148;8.234;2022-10-31T11:41:46;15.57;;;7.90;;
14903;SDS011;7543;53.148;8.234;2022-10-31T11:44:16;12.37;;;7.13;;
14903;SDS011;7543;53.148;8.234;2022-10-31T11:46:46;14.97;;;7.53;;
14903;SDS011;7543;53.148;8.234;2022-10-31T11:49:17;11.23;;;6.70;;
14903;SDS011;7543;53.148;8.234;2022-10-31T11:51:49;12.13;;;6.37;;
14903;SDS011;7543;53.148;8.234;2022-10-31T11:54:20;17.87;;;6.43;;
14903;SDS011;7543;53.148;8.234;2022-10-31T11:56:50;14.43;;;6.20;;
14903;SDS011;7543;53.148;8.234;2022-10-31T11:59:21;11.40;;;6.07;;
14903;SDS011;7543;53.148;8.234;2022-10-31T12:01:51;15.60;;;6.67;;
14903;SDS011;7543;53.148;8.234;2022-10-31T12:04:23;14.50;;;7.03;;
14903;SDS011;7543;53.148;8.234;2022-10-31T12:06:57;11.80;;;6.73;;
14903;SDS011;7543;53.148;8.234;2022-10-31T12:09:27;12.83;;;6.20;;
14903;SDS011;7543;53.148;8.234;2022-10-31T12:12:00;11.03;;;7.17;;
14903;SDS011;7543;53.148;8.234;2022-10-31T12:14:35;14.83;;;6.67;;
14903;SDS011;7543;53.148;8.234;2022-10-31T12:17:10;12.40;;;6.93;;
14903;SDS011;7543;53.148;8.234;2022-10-31T12:19:43;12.83;;;7.37;;
14903;SDS011;7543;53.148;8.234;2022-10-31T12:22:30;13.83;;;7.70;;
14903;SDS011;7543;53.148;8.234;2022-10-31T12:25:06;15.30;;;6.83;;
14903;SDS011;7543;53.148;8.234;2022-10-31T12:27:53;16.37;;;7.47;;
14903;SDS011;7543;53.148;8.234;2022-10-31T12:30:30;13.87;;;8.03;;
14903;SDS011;7543;53.148;8.234;2022-10-31T12:33:13;13.93;;;7.33;;
14903;SDS011;7543;53.148;8.234;2022-10-31T12:35:51;13.30;;;7.27;;
14903;SDS011;7543;53.148;8.234;2022-10-31T12:38:30;14.07;;;7.50;;
14903;SDS011;7543;53.148;8.234;2022-10-31T12:41:09;14.33;;;6.93;;
14903;SDS011;7543;53.148;8.234;2022-10-31T12:43:45;11.80;;;7.40;;
14903;SDS011;7543;53.148;8.234;2022-10-31T12:46:17;14.97;;;7.63;;
14903;SDS011;7543;53.148;8.234;2022-10-31T12:49:03;12.77;;;7.53;;
14903;SDS011;7543;53.148;8.234;2022-10-31T12:51:40;13.00;;;7.47;;
14903;SDS011;7543;53.148;8.234;2022-10-31T12:54:25;15.53;;;7.97;;
14903;SDS011;7543;53.148;8.234;2022-10-31T12:57:03;16.13;;;7.90;;
14903;SDS011;7543;53.148;8.234;2022-10-31T12:59:36;16.00;;;7.93;;
14903;SDS011;7543;53.148;8.234;2022-10-31T13:02:10;13.70;;;8.13;;
14903;SDS011;7543;53.148;8.234;2022-10-31T13:04:43;17.00;;;8.77;;
14903;SDS011;7543;53.148;8.234;2022-10-31T13:07:18;14.63;;;8.87;;
14903;SDS011;7543;53.148;8.234;2022-10-31T13:09:53;12.63;;;8.00;;
14903;SDS011;7543;53.148;8.234;2022-10-31T13:12:24;14.53;;;8.50;;
14903;SDS011;7543;53.148;8.234;2022-10-31T13:14:55;16.00;;;9.10;;
14903;SDS011;7543;53.148;8.234;2022-10-31T13:17:27;14.40;;;8.60;;
14903;SDS011;7543;53.148;8.234;2022-10-31T13:20:02;18.27;;;9.40;;
14903;SDS011;7543;53.148;8.234;2022-10-31T13:22:39;18.80;;;10.27;;
14903;SDS011;7543;53.148;8.234;2022-10-31T13:25:11;17.77;;;9.90;;
14903;SDS011;7543;53.148;8.234;2022-10-31T13:27:44;18.43;;;10.00;;
14903;SDS011;7543;53.148;8.234;2022-10-31T13:30:17;17.90;;;9.87;;
14903;SDS011;7543;53.148;8.234;2022-10-31T13:32:49;16.10;;;10.43;;
14903;SDS011;7543;53.148;8.234;2022-10-31T13:35:23;17.80;;;9.90;;
14903;SDS011;7543;53.148;8.234;2022-10-31T13:38:01;16.23;;;9.43;;
14903;SDS011;7543;53.148;8.234;2022-10-31T13:40:39;16.00;;;10.10;;
14903;SDS011;7543;53.148;8.234;2022-10-31T13:43:16;20.03;;;10.03;;
14903;SDS011;7543;53.148;8.234;2022-10-31T13:45:50;16.90;;;9.20;;
14903;SDS011;7543;53.148;8.234;2022-10-31T13:48:32;14.47;;;8.77;;
14903;SDS011;7543;53.148;8.234;2022-10-31T13:51:03;15.87;;;10.47;;
14903;SDS011;7543;53.148;8.234;2022-10-31T13:53:38;17.00;;;9.87;;
14903;SDS011;7543;53.148;8.234;2022-10-31T13:56:16;18.33;;;10.23;;
14903;SDS011;7543;53.148;8.234;2022-10-31T13:59:00;12.00;;;8.20;;
14903;SDS011;7543;53.148;8.234;2022-10-31T14:01:47;22.57;;;8.83;;
14903;SDS011;7543;53.148;8.234;2022-10-31T14:04:17;14.27;;;8.43;;
14903;SDS011;7543;53.148;8.234;2022-10-31T14:06:51;14.30;;;9.10;;
14903;SDS011;7543;53.148;8.234;2022-10-31T14:09:31;16.93;;;9.03;;
14903;SDS011;7543;53.148;8.234;2022-10-31T14:12:03;16.27;;;9.10;;
14903;SDS011;7543;53.148;8.234;2022-10-31T14:14:35;18.63;;;7.90;;
14903;SDS011;7543;53.148;8.234;2022-10-31T14:17:15;17.20;;;8.27;;
14903;SDS011;7543;53.148;8.234;2022-10-31T14:19:56;17.43;;;7.90;;
14903;SDS011;7543;53.148;8.234;2022-10-31T14:22:30;15.80;;;8.57;;
14903;SDS011;7543;53.148;8.234;2022-10-31T14:24:58;16.23;;;8.43;;
14903;SDS011;7543;53.148;8.234;2022-10-31T14:27:42;19.20;;;9.23;;
14903;SDS011;7543;53.148;8.234;2022-10-31T14:30:14;18.77;;;9.13;;
14903;SDS011;7543;53.148;8.234;2022-10-31T14:32:44;14.90;;;9.30;;
14903;SDS011;7543;53.148;8.234;2022-10-31T14:35:17;18.57;;;9.87;;
14903;SDS011;7543;53.148;8.234;2022-10-31T14:40:40;17.27;;;10.10;;
14903;SDS011;7543;53.148;8.234;2022-10-31T14:43:25;19.43;;;10.17;;
14903;SDS011;7543;53.148;8.234;2022-10-31T14:46:01;21.07;;;11.60;;
14903;SDS011;7543;53.148;8.234;2022-10-31T14:48:37;23.10;;;10.90;;
14903;SDS011;7543;53.148;8.234;2022-10-31T14:51:12;14.63;;;9.50;;
14903;SDS011;7543;53.148;8.234;2022-10-31T14:53:43;21.83;;;10.73;;
14903;SDS011;7543;53.148;8.234;2022-10-31T14:56:16;19.23;;;10.40;;
14903;SDS011;7543;53.148;8.234;2022-10-31T14:58:49;17.57;;;9.80;;
14903;SDS011;7543;53.148;8.234;2022-10-31T15:01:19;17.77;;;9.83;;
14903;SDS011;7543;53.148;8.234;2022-10-31T15:03:51;18.97;;;10.60;;
14903;SDS011;7543;53.148;8.234;2022-10-31T15:06:20;17.70;;;10.17;;
14903;SDS011;7543;53.148;8.234;2022-10-31T15:08:50;20.37;;;10.37;;
14903;SDS011;7543;53.148;8.234;2022-10-31T15:11:19;21.83;;;10.10;;
14903;SDS011;7543;53.148;8.234;2022-10-31T15:13:50;18.07;;;9.90;;
14903;SDS011;7543;53.148;8.234;2022-10-31T15:16:20;19.63;;;9.70;;
14903;SDS011;7543;53.148;8.234;2022-10-31T15:18:52;15.40;;;9.70;;
14903;SDS011;7543;53.148;8.234;2022-10-31T15:21:24;21.47;;;11.00;;
14903;SDS011;7543;53.148;8.234;2022-10-31T15:23:55;21.43;;;12.80;;
14903;SDS011;7543;53.148;8.234;2022-10-31T15:26:28;20.80;;;11.40;;
14903;SDS011;7543;53.148;8.234;2022-10-31T15:29:01;19.20;;;10.87;;
14903;SDS011;7543;53.148;8.234;2022-10-31T15:31:31;18.93;;;10.97;;
14903;SDS011;7543;53.148;8.234;2022-10-31T15:34:00;18.87;;;10.20;;
14903;SDS011;7543;53.148;8.234;2022-10-31T15:36:31;23.20;;;10.17;;
14903;SDS011;7543;53.148;8.234;2022-10-31T15:39:00;16.70;;;9.73;;
14903;SDS011;7543;53.148;8.234;2022-10-31T15:41:29;19.70;;;10.13;;
14903;SDS011;7543;53.148;8.234;2022-10-31T15:44:02;18.97;;;9.90;;
14903;SDS011;7543;53.148;8.234;2022-10-31T15:46:32;20.07;;;10.73;;